sensor_id;sensor_type;location;lat;lon;timestamp;pressure;altitude;pressure_sealevel;temperature;humidity
40592;BME280;26301;42.832;23.918;2023-03-24T00:01:51;93249.59;;;2.03;100.00
40592;BME280;26301;42.832;23.918;2023-03-24T00:04:18;93238.13;;;1.93;100.00
40592;BME280;26301;42.832;23.918;2023-03-24T00:06:43;93241.63;;;1.92;100.00
40592;BME280;26301;42.832;23.918;2023-03-24T00:09:10;93229.44;;;1.87;100.00
40592;BME280;26301;42.832;23.918;2023-03-24T00:11:35;93216.38;;;1.75;100.00
40592;BME280;26301;42.832;23.918;2023-03-24T00:14:02;93232.34;;;1.84;100.00
40592;BME280;26301;42.832;23.918;2023-03-24T00:16:28;93232.94;;;1.86;100.00
40592;BME280;26301;42.832;23.918;2023-03-24T00:18:54;93218.72;;;1.77;100.00
40592;BME280;26301;42.832;23.918;2023-03-24T00:21:22;93204.16;;;1.71;100.00
40592;BME280;26301;42.832;23.918;2023-03-24T00:23:49;93222.75;;;1.86;100.00
40592;BME280;26301;42.832;23.918;2023-03-24T00:26:19;93230.91;;;1.96;100.00
40592;BME280;26301;42.832;23.918;2023-03-24T00:28:47;93212.38;;;1.88;100.00
40592;BME280;26301;42.832;23.918;2023-03-24T00:31:14;93205.72;;;1.87;100.00
40592;BME280;26301;42.832;23.918;2023-03-24T00:33:42;93217.75;;;1.93;100.00
40592;BME280;26301;42.832;23.918;2023-03-24T00:36:10;93194.13;;;1.84;100.00
40592;BME280;26301;42.832;23.918;2023-03-24T00:38:37;93155.00;;;1.70;100.00
40592;BME280;26301;42.832;23.918;2023-03-24T00:41:05;93196.28;;;2.02;100.00
40592;BME280;26301;42.832;23.918;2023-03-24T00:43:32;93196.34;;;2.09;99.12
40592;BME280;26301;42.832;23.918;2023-03-24T00:46:03;93154.16;;;1.85;99.29
40592;BME280;26301;42.832;23.918;2023-03-24T00:48:30;93199.34;;;2.19;98.64
40592;BME280;26301;42.832;23.918;2023-03-24T00:50:56;93195.25;;;2.18;98.32
40592;BME280;26301;42.832;23.918;2023-03-24T00:53:22;93212.78;;;2.27;98.39
40592;BME280;26301;42.832;23.918;2023-03-24T00:55:50;93216.81;;;2.22;98.97
40592;BME280;26301;42.832;23.918;2023-03-24T00:58:17;93189.06;;;2.05;98.81
40592;BME280;26301;42.832;23.918;2023-03-24T01:00:49;93202.22;;;2.09;98.72
40592;BME280;26301;42.832;23.918;2023-03-24T01:03:16;93216.41;;;2.18;97.51
40592;BME280;26301;42.832;23.918;2023-03-24T01:05:42;93208.28;;;2.08;98.12
40592;BME280;26301;42.832;23.918;2023-03-24T01:08:13;93213.59;;;2.13;97.62
40592;BME280;26301;42.832;23.918;2023-03-24T01:10:39;93182.06;;;1.93;98.68
40592;BME280;26301;42.832;23.918;2023-03-24T01:13:18;93205.53;;;2.10;97.66
40592;BME280;26301;42.832;23.918;2023-03-24T01:15:44;93212.34;;;2.02;98.22
40592;BME280;26301;42.832;23.918;2023-03-24T01:18:11;93191.22;;;1.87;98.52
40592;BME280;26301;42.832;23.918;2023-03-24T01:20:41;93145.03;;;1.54;98.19
40592;BME280;26301;42.832;23.918;2023-03-24T01:23:12;93198.16;;;1.93;98.75
40592;BME280;26301;42.832;23.918;2023-03-24T01:25:39;93184.91;;;1.83;98.85
40592;BME280;26301;42.832;23.918;2023-03-24T01:28:07;93207.72;;;1.91;98.84
40592;BME280;26301;42.832;23.918;2023-03-24T01:30:33;93211.84;;;1.92;99.00
40592;BME280;26301;42.832;23.918;2023-03-24T01:32:58;93205.78;;;1.93;98.23
40592;BME280;26301;42.832;23.918;2023-03-24T01:35:25;93203.31;;;2.00;98.11
40592;BME280;26301;42.832;23.918;2023-03-24T01:37:51;93196.28;;;2.02;97.46
40592;BME280;26301;42.832;23.918;2023-03-24T01:40:26;93203.72;;;2.03;98.03
40592;BME280;26301;42.832;23.918;2023-03-24T01:42:52;93193.09;;;2.00;97.81
40592;BME280;26301;42.832;23.918;2023-03-24T01:48:35;93196.03;;;1.97;97.00
40592;BME280;26301;42.832;23.918;2023-03-24T01:51:11;93185.22;;;1.95;97.23
40592;BME280;26301;42.832;23.918;2023-03-24T01:53:41;93207.06;;;2.04;97.17
40592;BME280;26301;42.832;23.918;2023-03-24T01:56:08;93192.28;;;1.93;96.29
40592;BME280;26301;42.832;23.918;2023-03-24T01:58:36;93215.06;;;2.01;96.05
40592;BME280;26301;42.832;23.918;2023-03-24T02:01:04;93186.97;;;1.94;96.59
40592;BME280;26301;42.832;23.918;2023-03-24T02:03:30;93210.22;;;2.06;96.48
40592;BME280;26301;42.832;23.918;2023-03-24T02:05:59;93201.47;;;1.94;96.94
40592;BME280;26301;42.832;23.918;2023-03-24T02:08:40;93199.59;;;1.81;97.28
40592;BME280;26301;42.832;23.918;2023-03-24T02:11:07;93201.16;;;1.82;96.98
40592;BME280;26301;42.832;23.918;2023-03-24T02:13:32;93226.75;;;1.95;97.34
40592;BME280;26301;42.832;23.918;2023-03-24T02:40:31;93214.84;;;1.59;100.00
40592;BME280;26301;42.832;23.918;2023-03-24T02:43:45;93201.06;;;1.54;100.00
40592;BME280;26301;42.832;23.918;2023-03-24T02:54:08;93175.63;;;1.39;100.00
40592;BME280;26301;42.832;23.918;2023-03-24T02:57:08;93190.97;;;1.46;100.00
40592;BME280;26301;42.832;23.918;2023-03-24T02:59:30;93194.19;;;1.54;100.00
40592;BME280;26301;42.832;23.918;2023-03-24T03:02:02;93196.19;;;1.59;100.00
40592;BME280;26301;42.832;23.918;2023-03-24T03:04:42;93195.06;;;1.62;100.00
40592;BME280;26301;42.832;23.918;2023-03-24T03:07:11;93179.19;;;1.59;100.00
40592;BME280;26301;42.832;23.918;2023-03-24T03:09:46;93179.00;;;1.61;100.00
40592;BME280;26301;42.832;23.918;2023-03-24T03:12:14;93171.19;;;1.63;100.00
40592;BME280;26301;42.832;23.918;2023-03-24T03:14:51;93173.97;;;1.68;100.00
40592;BME280;26301;42.832;23.918;2023-03-24T03:17:29;93148.19;;;1.56;100.00
40592;BME280;26301;42.832;23.918;2023-03-24T03:20:00;93159.59;;;1.60;100.00
40592;BME280;26301;42.832;23.918;2023-03-24T03:22:40;93155.22;;;1.54;100.00
40592;BME280;26301;42.832;23.918;2023-03-24T03:25:11;93167.38;;;1.73;100.00
40592;BME280;26301;42.832;23.918;2023-03-24T03:27:41;93155.91;;;1.63;100.00
40592;BME280;26301;42.832;23.918;2023-03-24T03:32:43;93168.41;;;1.79;100.00
40592;BME280;26301;42.832;23.918;2023-03-24T03:40:55;93171.56;;;1.81;100.00
40592;BME280;26301;42.832;23.918;2023-03-24T03:43:24;93163.13;;;1.80;100.00
40592;BME280;26301;42.832;23.918;2023-03-24T03:45:51;93150.75;;;1.77;100.00
40592;BME280;26301;42.832;23.918;2023-03-24T03:48:17;93171.06;;;1.92;100.00
40592;BME280;26301;42.832;23.918;2023-03-24T03:50:43;93171.94;;;1.99;100.00
40592;BME280;26301;42.832;23.918;2023-03-24T03:53:10;93155.94;;;1.84;100.00
40592;BME280;26301;42.832;23.918;2023-03-24T03:55:39;93172.78;;;2.06;100.00
40592;BME280;26301;42.832;23.918;2023-03-24T03:58:06;93175.59;;;2.12;100.00
40592;BME280;26301;42.832;23.918;2023-03-24T04:00:33;93173.03;;;2.12;100.00
40592;BME280;26301;42.832;23.918;2023-03-24T04:05:29;93182.44;;;2.11;100.00
40592;BME280;26301;42.832;23.918;2023-03-24T04:10:48;93186.19;;;2.15;100.00
40592;BME280;26301;42.832;23.918;2023-03-24T04:21:36;93173.03;;;1.90;100.00
40592;BME280;26301;42.832;23.918;2023-03-24T04:27:08;93200.56;;;2.01;100.00
40592;BME280;26301;42.832;23.918;2023-03-24T04:30:00;93170.22;;;1.85;100.00
40592;BME280;26301;42.832;23.918;2023-03-24T04:32:44;93190.72;;;1.98;100.00
40592;BME280;26301;42.832;23.918;2023-03-24T04:35:41;93192.91;;;2.01;100.00
40592;BME280;26301;42.832;23.918;2023-03-24T04:38:13;93183.38;;;1.89;100.00
40592;BME280;26301;42.832;23.918;2023-03-24T04:40:45;93188.31;;;1.90;100.00
40592;BME280;26301;42.832;23.918;2023-03-24T04:43:16;93192.44;;;1.91;100.00
40592;BME280;26301;42.832;23.918;2023-03-24T04:45:43;93182.81;;;1.87;100.00
40592;BME280;26301;42.832;23.918;2023-03-24T04:48:15;93196.31;;;1.87;100.00
40592;BME280;26301;42.832;23.918;2023-03-24T04:50:57;93196.19;;;1.95;100.00
40592;BME280;26301;42.832;23.918;2023-03-24T04:53:24;93199.97;;;1.99;100.00
40592;BME280;26301;42.832;23.918;2023-03-24T04:58:31;93200.28;;;2.11;100.00
40592;BME280;26301;42.832;23.918;2023-03-24T05:00:56;93206.28;;;2.25;100.00
40592;BME280;26301;42.832;23.918;2023-03-24T05:03:23;93204.75;;;2.31;100.00
40592;BME280;26301;42.832;23.918;2023-03-24T05:05:50;93199.84;;;2.50;100.00
40592;BME280;26301;42.832;23.918;2023-03-24T05:08:17;93216.50;;;2.74;100.00
40592;BME280;26301;42.832;23.918;2023-03-24T05:10:43;93199.75;;;2.93;100.00
40592;BME280;26301;42.832;23.918;2023-03-24T05:13:10;93199.50;;;3.16;100.00
40592;BME280;26301;42.832;23.918;2023-03-24T05:15:36;93210.25;;;3.47;100.00
40592;BME280;26301;42.832;23.918;2023-03-24T05:18:02;93215.41;;;3.66;100.00
40592;BME280;26301;42.832;23.918;2023-03-24T05:20:28;93210.78;;;3.90;100.00
40592;BME280;26301;42.832;23.918;2023-03-24T05:22:54;93211.81;;;4.09;100.00
40592;BME280;26301;42.832;23.918;2023-03-24T05:25:20;93221.50;;;4.27;100.00
40592;BME280;26301;42.832;23.918;2023-03-24T05:27:46;93190.63;;;4.28;100.00
40592;BME280;26301;42.832;23.918;2023-03-24T05:30:13;93204.00;;;4.57;100.00
40592;BME280;26301;42.832;23.918;2023-03-24T05:32:39;93209.75;;;4.79;100.00
40592;BME280;26301;42.832;23.918;2023-03-24T05:35:05;93204.59;;;4.99;98.37
40592;BME280;26301;42.832;23.918;2023-03-24T05:37:30;93202.81;;;5.06;97.44
40592;BME280;26301;42.832;23.918;2023-03-24T05:39:56;93186.25;;;5.22;96.94
40592;BME280;26301;42.832;23.918;2023-03-24T05:42:22;93195.03;;;5.46;97.00
40592;BME280;26301;42.832;23.918;2023-03-24T05:44:48;93208.34;;;5.68;97.12
40592;BME280;26301;42.832;23.918;2023-03-24T05:47:14;93189.03;;;5.65;96.85
40592;BME280;26301;42.832;23.918;2023-03-24T05:49:44;93196.47;;;5.87;97.18
40592;BME280;26301;42.832;23.918;2023-03-24T05:52:10;93201.28;;;6.15;97.01
40592;BME280;26301;42.832;23.918;2023-03-24T05:54:37;93191.09;;;6.33;95.09
40592;BME280;26301;42.832;23.918;2023-03-24T05:57:05;93211.19;;;6.68;94.38
40592;BME280;26301;42.832;23.918;2023-03-24T05:59:35;93203.50;;;6.93;95.86
40592;BME280;26301;42.832;23.918;2023-03-24T06:02:02;93197.53;;;7.18;96.55
40592;BME280;26301;42.832;23.918;2023-03-24T06:04:28;93217.31;;;7.54;94.08
40592;BME280;26301;42.832;23.918;2023-03-24T06:06:57;93207.34;;;7.83;94.73
40592;BME280;26301;42.832;23.918;2023-03-24T06:09:28;93206.09;;;8.04;94.67
40592;BME280;26301;42.832;23.918;2023-03-24T06:11:58;93203.03;;;8.25;92.88
40592;BME280;26301;42.832;23.918;2023-03-24T06:14:23;93210.53;;;8.57;92.16
40592;BME280;26301;42.832;23.918;2023-03-24T06:16:50;93187.72;;;8.72;91.34
40592;BME280;26301;42.832;23.918;2023-03-24T06:19:16;93189.41;;;8.90;81.82
40592;BME280;26301;42.832;23.918;2023-03-24T06:21:42;93218.56;;;9.26;77.49
40592;BME280;26301;42.832;23.918;2023-03-24T06:24:09;93210.59;;;9.51;76.04
40592;BME280;26301;42.832;23.918;2023-03-24T06:26:39;93221.22;;;9.78;72.87
40592;BME280;26301;42.832;23.918;2023-03-24T06:29:07;93219.69;;;10.05;74.13
40592;BME280;26301;42.832;23.918;2023-03-24T06:31:33;93199.91;;;10.11;70.65
40592;BME280;26301;42.832;23.918;2023-03-24T06:34:00;93207.03;;;10.33;68.26
40592;BME280;26301;42.832;23.918;2023-03-24T06:36:25;93204.56;;;10.55;63.41
40592;BME280;26301;42.832;23.918;2023-03-24T06:38:51;93213.44;;;10.75;59.90
40592;BME280;26301;42.832;23.918;2023-03-24T06:41:16;93229.97;;;11.08;59.00
40592;BME280;26301;42.832;23.918;2023-03-24T06:43:42;93230.91;;;11.19;57.26
40592;BME280;26301;42.832;23.918;2023-03-24T06:46:08;93206.22;;;11.28;56.80
40592;BME280;26301;42.832;23.918;2023-03-24T06:48:34;93229.00;;;11.70;57.21
40592;BME280;26301;42.832;23.918;2023-03-24T06:51:00;93215.06;;;11.71;56.50
40592;BME280;26301;42.832;23.918;2023-03-24T06:53:25;93233.81;;;12.00;57.86
40592;BME280;26301;42.832;23.918;2023-03-24T06:55:51;93212.69;;;12.08;54.87
40592;BME280;26301;42.832;23.918;2023-03-24T06:58:17;93216.84;;;12.31;55.95
40592;BME280;26301;42.832;23.918;2023-03-24T07:00:44;93216.50;;;12.50;56.45
40592;BME280;26301;42.832;23.918;2023-03-24T07:03:11;93227.00;;;12.65;54.82
40592;BME280;26301;42.832;23.918;2023-03-24T07:05:43;93234.91;;;12.80;53.23
40592;BME280;26301;42.832;23.918;2023-03-24T07:08:09;93218.13;;;12.88;50.78
40592;BME280;26301;42.832;23.918;2023-03-24T07:10:37;93222.13;;;13.01;51.44
40592;BME280;26301;42.832;23.918;2023-03-24T07:13:04;93238.97;;;13.31;52.32
40592;BME280;26301;42.832;23.918;2023-03-24T07:15:31;93231.78;;;13.43;50.32
40592;BME280;26301;42.832;23.918;2023-03-24T07:17:56;93220.13;;;13.45;51.00
40592;BME280;26301;42.832;23.918;2023-03-24T07:20:22;93233.56;;;13.80;55.40
40592;BME280;26301;42.832;23.918;2023-03-24T07:22:48;93244.28;;;13.93;50.47
40592;BME280;26301;42.832;23.918;2023-03-24T07:25:14;93226.09;;;13.93;50.94
40592;BME280;26301;42.832;23.918;2023-03-24T07:27:45;93239.19;;;14.19;50.13
40592;BME280;26301;42.832;23.918;2023-03-24T07:30:11;93221.25;;;14.17;46.79
40592;BME280;26301;42.832;23.918;2023-03-24T07:32:37;93229.34;;;14.31;45.17
40592;BME280;26301;42.832;23.918;2023-03-24T07:35:08;93225.22;;;14.46;45.37
40592;BME280;26301;42.832;23.918;2023-03-24T07:37:35;93239.34;;;14.60;44.45
40592;BME280;26301;42.832;23.918;2023-03-24T07:40:02;93231.81;;;14.69;44.90
40592;BME280;26301;42.832;23.918;2023-03-24T07:42:30;93228.72;;;14.87;43.94
40592;BME280;26301;42.832;23.918;2023-03-24T07:44:56;93240.41;;;14.95;45.96
40592;BME280;26301;42.832;23.918;2023-03-24T07:47:21;93239.66;;;15.09;43.97
40592;BME280;26301;42.832;23.918;2023-03-24T07:49:47;93232.09;;;15.18;42.67
40592;BME280;26301;42.832;23.918;2023-03-24T07:52:12;93226.63;;;15.25;41.24
40592;BME280;26301;42.832;23.918;2023-03-24T07:54:38;93233.69;;;15.35;42.50
40592;BME280;26301;42.832;23.918;2023-03-24T07:57:04;93216.75;;;15.27;42.99
40592;BME280;26301;42.832;23.918;2023-03-24T07:59:29;93206.31;;;15.37;42.75
40592;BME280;26301;42.832;23.918;2023-03-24T08:01:55;93204.25;;;15.49;42.11
40592;BME280;26301;42.832;23.918;2023-03-24T08:04:20;93218.53;;;15.67;41.35
40592;BME280;26301;42.832;23.918;2023-03-24T08:06:46;93195.88;;;15.63;44.03
40592;BME280;26301;42.832;23.918;2023-03-24T08:09:12;93190.41;;;15.74;45.61
40592;BME280;26301;42.832;23.918;2023-03-24T08:11:38;93200.28;;;15.77;42.41
40592;BME280;26301;42.832;23.918;2023-03-24T08:14:04;93218.47;;;15.98;41.62
40592;BME280;26301;42.832;23.918;2023-03-24T08:16:30;93203.06;;;16.02;43.40
40592;BME280;26301;42.832;23.918;2023-03-24T08:18:56;93222.56;;;16.19;41.73
40592;BME280;26301;42.832;23.918;2023-03-24T08:21:25;93204.78;;;16.32;42.21
40592;BME280;26301;42.832;23.918;2023-03-24T08:23:51;93192.22;;;16.39;41.31
40592;BME280;26301;42.832;23.918;2023-03-24T08:26:17;93202.84;;;16.53;41.10
40592;BME280;26301;42.832;23.918;2023-03-24T08:28:43;93199.13;;;16.64;40.34
40592;BME280;26301;42.832;23.918;2023-03-24T08:31:09;93200.44;;;16.61;41.46
40592;BME280;26301;42.832;23.918;2023-03-24T08:33:35;93195.91;;;16.72;41.39
40592;BME280;26301;42.832;23.918;2023-03-24T08:36:01;93198.75;;;16.81;39.82
40592;BME280;26301;42.832;23.918;2023-03-24T08:38:27;93183.63;;;16.83;37.58
40592;BME280;26301;42.832;23.918;2023-03-24T08:41:00;93185.47;;;16.82;39.47
40592;BME280;26301;42.832;23.918;2023-03-24T08:43:29;93188.63;;;16.79;39.13
40592;BME280;26301;42.832;23.918;2023-03-24T08:45:57;93182.75;;;16.98;38.93
40592;BME280;26301;42.832;23.918;2023-03-24T08:48:23;93149.16;;;16.91;39.98
40592;BME280;26301;42.832;23.918;2023-03-24T08:50:49;93160.25;;;17.02;37.77
40592;BME280;26301;42.832;23.918;2023-03-24T08:53:14;93169.75;;;17.22;36.96
40592;BME280;26301;42.832;23.918;2023-03-24T08:55:41;93166.84;;;17.23;39.11
40592;BME280;26301;42.832;23.918;2023-03-24T08:58:18;93169.94;;;17.30;38.99
40592;BME280;26301;42.832;23.918;2023-03-24T09:00:46;93171.72;;;17.35;38.85
40592;BME280;26301;42.832;23.918;2023-03-24T09:03:14;93155.28;;;17.34;38.03
40592;BME280;26301;42.832;23.918;2023-03-24T09:05:43;93154.06;;;17.51;39.42
40592;BME280;26301;42.832;23.918;2023-03-24T09:08:09;93147.28;;;17.50;39.64
40592;BME280;26301;42.832;23.918;2023-03-24T09:10:35;93150.44;;;17.47;39.62
40592;BME280;26301;42.832;23.918;2023-03-24T09:13:01;93148.56;;;17.52;37.14
40592;BME280;26301;42.832;23.918;2023-03-24T09:15:28;93144.66;;;17.50;39.35
40592;BME280;26301;42.832;23.918;2023-03-24T09:17:54;93146.13;;;17.61;37.01
40592;BME280;26301;42.832;23.918;2023-03-24T09:20:19;93135.50;;;17.52;37.26
40592;BME280;26301;42.832;23.918;2023-03-24T09:22:45;93122.63;;;17.37;38.63
40592;BME280;26301;42.832;23.918;2023-03-24T09:25:14;93134.41;;;17.58;38.76
40592;BME280;26301;42.832;23.918;2023-03-24T09:27:40;93143.69;;;17.70;37.68
40592;BME280;26301;42.832;23.918;2023-03-24T09:30:06;93144.81;;;17.64;36.08
40592;BME280;26301;42.832;23.918;2023-03-24T09:32:34;93146.78;;;17.48;36.46
40592;BME280;26301;42.832;23.918;2023-03-24T09:34:59;93147.56;;;17.48;38.44
40592;BME280;26301;42.832;23.918;2023-03-24T09:37:31;93127.72;;;17.47;36.38
40592;BME280;26301;42.832;23.918;2023-03-24T09:39:57;93139.91;;;17.57;40.63
40592;BME280;26301;42.832;23.918;2023-03-24T09:42:27;93142.19;;;17.64;36.11
40592;BME280;26301;42.832;23.918;2023-03-24T09:44:58;93135.78;;;17.75;40.32
40592;BME280;26301;42.832;23.918;2023-03-24T09:47:28;93144.38;;;17.80;41.22
40592;BME280;26301;42.832;23.918;2023-03-24T09:49:59;93125.06;;;17.76;38.93
40592;BME280;26301;42.832;23.918;2023-03-24T09:52:39;93138.91;;;18.01;37.89
40592;BME280;26301;42.832;23.918;2023-03-24T09:55:12;93091.22;;;17.66;37.87
40592;BME280;26301;42.832;23.918;2023-03-24T09:57:43;93107.31;;;17.78;37.42
40592;BME280;26301;42.832;23.918;2023-03-24T10:02:48;93125.78;;;18.06;39.35
40592;BME280;26301;42.832;23.918;2023-03-24T10:05:17;93105.50;;;17.98;38.64
40592;BME280;26301;42.832;23.918;2023-03-24T10:16:32;93105.44;;;18.22;35.23
40592;BME280;26301;42.832;23.918;2023-03-24T10:22:09;93101.47;;;18.24;36.63
40592;BME280;26301;42.832;23.918;2023-03-24T10:27:17;93119.00;;;18.24;37.25
40592;BME280;26301;42.832;23.918;2023-03-24T10:29:48;93101.28;;;18.21;37.13
40592;BME280;26301;42.832;23.918;2023-03-24T10:32:24;93083.81;;;18.16;36.91
40592;BME280;26301;42.832;23.918;2023-03-24T10:34:55;93111.22;;;18.38;35.87
40592;BME280;26301;42.832;23.918;2023-03-24T10:37:22;93092.31;;;18.27;35.59
40592;BME280;26301;42.832;23.918;2023-03-24T10:39:48;93107.47;;;18.25;37.74
40592;BME280;26301;42.832;23.918;2023-03-24T10:42:17;93099.34;;;18.08;36.84
40592;BME280;26301;42.832;23.918;2023-03-24T10:44:47;93098.09;;;18.24;36.56
40592;BME280;26301;42.832;23.918;2023-03-24T10:47:26;93108.91;;;18.36;36.35
40592;BME280;26301;42.832;23.918;2023-03-24T10:49:56;93095.81;;;18.36;37.99
40592;BME280;26301;42.832;23.918;2023-03-24T10:52:22;93102.03;;;18.40;36.10
40592;BME280;26301;42.832;23.918;2023-03-24T10:54:53;93094.38;;;18.44;35.95
40592;BME280;26301;42.832;23.918;2023-03-24T10:57:21;93093.47;;;18.35;34.58
40592;BME280;26301;42.832;23.918;2023-03-24T11:00:19;93080.16;;;18.17;36.22
40592;BME280;26301;42.832;23.918;2023-03-24T11:03:11;93088.47;;;18.19;36.56
40592;BME280;26301;42.832;23.918;2023-03-24T11:05:40;93084.59;;;18.17;35.32
40592;BME280;26301;42.832;23.918;2023-03-24T11:08:20;93084.59;;;18.17;36.29
40592;BME280;26301;42.832;23.918;2023-03-24T11:10:48;93088.13;;;18.26;34.72
40592;BME280;26301;42.832;23.918;2023-03-24T11:13:19;93074.69;;;18.14;34.04
40592;BME280;26301;42.832;23.918;2023-03-24T11:16:15;93080.72;;;18.14;33.91
40592;BME280;26301;42.832;23.918;2023-03-24T11:19:02;93065.16;;;18.04;34.56
40592;BME280;26301;42.832;23.918;2023-03-24T11:21:30;93069.69;;;18.17;34.49
40592;BME280;26301;42.832;23.918;2023-03-24T11:24:01;93074.56;;;18.24;34.93
40592;BME280;26301;42.832;23.918;2023-03-24T11:26:33;93056.13;;;18.15;34.30
40592;BME280;26301;42.832;23.918;2023-03-24T11:29:04;93049.63;;;18.13;36.28
40592;BME280;26301;42.832;23.918;2023-03-24T11:31:36;93045.25;;;18.08;35.50
40592;BME280;26301;42.832;23.918;2023-03-24T11:34:16;93066.53;;;18.20;33.07
40592;BME280;26301;42.832;23.918;2023-03-24T11:37:02;93068.34;;;18.20;34.48
40592;BME280;26301;42.832;23.918;2023-03-24T11:39:32;93044.97;;;18.10;33.38
40592;BME280;26301;42.832;23.918;2023-03-24T11:44:45;93036.16;;;18.05;35.08
40592;BME280;26301;42.832;23.918;2023-03-24T11:50:12;93024.56;;;18.12;31.49
40592;BME280;26301;42.832;23.918;2023-03-24T11:55:17;93034.00;;;18.08;31.25
40592;BME280;26301;42.832;23.918;2023-03-24T12:00:49;93031.53;;;18.16;28.98
40592;BME280;26301;42.832;23.918;2023-03-24T12:03:31;93033.16;;;18.12;28.85
40592;BME280;26301;42.832;23.918;2023-03-24T12:06:27;93029.69;;;18.17;29.13
40592;BME280;26301;42.832;23.918;2023-03-24T12:17:13;93019.13;;;18.41;28.91
40592;BME280;26301;42.832;23.918;2023-03-24T12:23:07;93007.31;;;18.30;31.95
40592;BME280;26301;42.832;23.918;2023-03-24T12:28:12;93014.78;;;18.36;28.06
40592;BME280;26301;42.832;23.918;2023-03-24T12:31:18;93006.50;;;18.29;28.72
40592;BME280;26301;42.832;23.918;2023-03-24T12:42:44;92976.84;;;18.20;31.46
40592;BME280;26301;42.832;23.918;2023-03-24T12:56:23;92989.28;;;18.28;30.46
40592;BME280;26301;42.832;23.918;2023-03-24T12:58:55;92993.53;;;18.24;33.50
40592;BME280;26301;42.832;23.918;2023-03-24T13:01:43;92987.03;;;18.21;31.69
40592;BME280;26301;42.832;23.918;2023-03-24T13:04:20;92980.84;;;18.31;31.02
40592;BME280;26301;42.832;23.918;2023-03-24T13:06:58;92961.84;;;18.12;31.31
40592;BME280;26301;42.832;23.918;2023-03-24T13:12:05;92959.03;;;18.22;31.52
40592;BME280;26301;42.832;23.918;2023-03-24T13:17:31;92961.28;;;18.28;32.62
40592;BME280;26301;42.832;23.918;2023-03-24T13:19:59;92970.31;;;18.36;30.90
40592;BME280;26301;42.832;23.918;2023-03-24T13:22:31;92958.31;;;18.35;31.42
40592;BME280;26301;42.832;23.918;2023-03-24T13:24:59;92961.25;;;18.47;31.39
40592;BME280;26301;42.832;23.918;2023-03-24T13:27:32;92943.88;;;18.38;32.06
40592;BME280;26301;42.832;23.918;2023-03-24T13:33:18;92948.53;;;18.41;31.39
40592;BME280;26301;42.832;23.918;2023-03-24T13:36:21;92952.78;;;18.37;30.75
40592;BME280;26301;42.832;23.918;2023-03-24T13:38:54;92947.16;;;18.30;31.62
40592;BME280;26301;42.832;23.918;2023-03-24T13:41:23;92919.72;;;18.13;32.12
40592;BME280;26301;42.832;23.918;2023-03-24T13:44:18;92950.25;;;18.32;34.23
40592;BME280;26301;42.832;23.918;2023-03-24T13:47:11;92943.31;;;18.41;31.55
40592;BME280;26301;42.832;23.918;2023-03-24T13:49:38;92919.88;;;18.36;32.03
40592;BME280;26301;42.832;23.918;2023-03-24T13:52:17;92915.94;;;18.19;32.03
40592;BME280;26301;42.832;23.918;2023-03-24T13:54:45;92930.91;;;18.33;32.96
40592;BME280;26301;42.832;23.918;2023-03-24T13:57:19;92923.25;;;18.36;31.86
40592;BME280;26301;42.832;23.918;2023-03-24T14:00:00;92924.41;;;18.44;34.77
40592;BME280;26301;42.832;23.918;2023-03-24T14:02:48;92929.69;;;18.58;34.29
40592;BME280;26301;42.832;23.918;2023-03-24T14:08:12;92912.81;;;18.50;33.06
40592;BME280;26301;42.832;23.918;2023-03-24T14:15:56;92926.97;;;18.63;32.23
40592;BME280;26301;42.832;23.918;2023-03-24T14:21:08;92918.44;;;18.71;34.04
40592;BME280;26301;42.832;23.918;2023-03-24T14:23:48;92919.53;;;18.70;35.87
40592;BME280;26301;42.832;23.918;2023-03-24T14:28:50;92906.38;;;18.75;31.65
40592;BME280;26301;42.832;23.918;2023-03-24T14:31:27;92920.88;;;18.67;32.98
40592;BME280;26301;42.832;23.918;2023-03-24T14:36:27;92916.78;;;18.61;35.44
40592;BME280;26301;42.832;23.918;2023-03-24T14:41:34;92895.66;;;18.44;38.12
40592;BME280;26301;42.832;23.918;2023-03-24T14:44:04;92901.00;;;18.39;34.81
40592;BME280;26301;42.832;23.918;2023-03-24T14:46:36;92917.00;;;18.51;34.16
40592;BME280;26301;42.832;23.918;2023-03-24T14:57:43;92892.94;;;18.21;38.24
40592;BME280;26301;42.832;23.918;2023-03-24T15:02:41;92889.19;;;17.95;36.26
40592;BME280;26301;42.832;23.918;2023-03-24T15:07:44;92917.09;;;17.99;40.30
40592;BME280;26301;42.832;23.918;2023-03-24T15:10:17;92916.09;;;17.95;41.01
40592;BME280;26301;42.832;23.918;2023-03-24T15:12:47;92899.16;;;17.74;42.33
40592;BME280;26301;42.832;23.918;2023-03-24T15:15:23;92915.81;;;17.78;42.25
40592;BME280;26301;42.832;23.918;2023-03-24T15:17:50;92917.50;;;17.69;43.77
40592;BME280;26301;42.832;23.918;2023-03-24T15:20:23;92905.38;;;17.59;43.27
40592;BME280;26301;42.832;23.918;2023-03-24T15:22:50;92921.34;;;17.57;43.74
40592;BME280;26301;42.832;23.918;2023-03-24T15:25:27;92924.00;;;17.52;44.51
40592;BME280;26301;42.832;23.918;2023-03-24T15:27:54;92927.34;;;17.39;43.82
40592;BME280;26301;42.832;23.918;2023-03-24T15:30:22;92930.22;;;17.37;44.13
40592;BME280;26301;42.832;23.918;2023-03-24T15:32:48;92920.47;;;17.24;44.62
40592;BME280;26301;42.832;23.918;2023-03-24T15:35:20;92918.50;;;17.16;45.54
40592;BME280;26301;42.832;23.918;2023-03-24T15:37:55;92915.00;;;17.02;46.14
40592;BME280;26301;42.832;23.918;2023-03-24T15:43:04;92902.56;;;16.69;46.99
40592;BME280;26301;42.832;23.918;2023-03-24T15:45:36;92900.84;;;16.60;47.43
40592;BME280;26301;42.832;23.918;2023-03-24T15:48:12;92921.72;;;16.60;48.18
40592;BME280;26301;42.832;23.918;2023-03-24T15:50:40;92895.84;;;16.39;48.22
40592;BME280;26301;42.832;23.918;2023-03-24T15:55:44;92921.50;;;16.27;48.78
40592;BME280;26301;42.832;23.918;2023-03-24T15:58:21;92911.78;;;16.09;49.45
40592;BME280;26301;42.832;23.918;2023-03-24T16:00:48;92921.31;;;15.89;50.43